Time;durP1;ratioP1;P1;durP2;ratioP2;P2;SDS_P1;SDS_P2;PMS_P1;PMS_P2;Temp;Humidity;BMP_temperature;BMP_pressure;BME280_temperature;BME280_humidity;BME280_pressure;Samples;Min_cycle;Max_cycle;Signal;HPM_P1;HPM_P2
2023/05/28 00:01:28;;;;;;;9.30;4.10;;;;;;;;;;4986069;28;20060;-77
2023/05/28 00:03:53;;;;;;;7.28;3.70;;;;;;;;;;4971389;28;20038;-76
2023/05/28 00:06:19;;;;;;;5.57;3.63;;;;;;;;;;4977782;28;20026;-77
2023/05/28 00:08:44;;;;;;;8.35;3.88;;;;;;;;;;4984670;28;20333;-77
2023/05/28 00:11:09;;;;;;;9.38;4.32;;;;;;;;;;4981823;28;20232;-76
2023/05/28 00:13:35;;;;;;;12.77;4.50;;;;;;;;;;4990836;28;20045;-77
2023/05/28 00:16:00;;;;;;;13.75;4.18;;;;;;;;;;5005703;28;20043;-76
2023/05/28 00:18:28;;;;;;;9.45;4.13;;;;;;;;;;4974652;28;20035;-77
2023/05/28 00:20:54;;;;;;;8.60;3.97;;;;;;;;;;4975887;28;20044;-77
2023/05/28 00:23:19;;;;;;;9.05;4.07;;;;;;;;;;4985243;28;20045;-77
2023/05/28 00:25:44;;;;;;;9.80;4.65;;;;;;;;;;4994662;28;20034;-77
2023/05/28 00:28:10;;;;;;;9.43;4.13;;;;;;;;;;4986616;28;20109;-77
2023/05/28 00:30:35;;;;;;;7.10;4.32;;;;;;;;;;4989640;28;20026;-77
2023/05/28 00:33:00;;;;;;;8.50;4.10;;;;;;;;;;4980683;28;20485;-76
2023/05/28 00:35:26;;;;;;;9.20;3.92;;;;;;;;;;4987915;28;20038;-79
2023/05/28 00:37:52;;;;;;;8.70;3.92;;;;;;;;;;4978998;28;20035;-77
2023/05/28 00:40:18;;;;;;;9.52;3.45;;;;;;;;;;4983965;28;20985;-79
2023/05/28 00:42:43;;;;;;;11.68;3.78;;;;;;;;;;4991646;28;20040;-78
2023/05/28 00:45:09;;;;;;;9.88;4.72;;;;;;;;;;4986551;28;20118;-76
2023/05/28 00:47:35;;;;;;;8.00;4.10;;;;;;;;;;4979985;28;20130;-77
2023/05/28 00:50:01;;;;;;;6.60;4.18;;;;;;;;;;4992997;28;20066;-77
2023/05/28 00:52:27;;;;;;;7.32;4.45;;;;;;;;;;4979166;28;20390;-77
2023/05/28 00:54:52;;;;;;;8.95;4.07;;;;;;;;;;4985251;28;20035;-77
2023/05/28 00:57:21;;;;;;;7.82;4.38;;;;;;;;;;4997354;28;20166;-77
2023/05/28 00:59:47;;;;;;;6.75;3.95;;;;;;;;;;4994461;28;20440;-77
2023/05/28 01:02:13;;;;;;;8.07;4.60;;;;;;;;;;4993689;28;20045;-77
2023/05/28 01:04:38;;;;;;;14.95;5.18;;;;;;;;;;4992333;28;20038;-77
2023/05/28 01:07:04;;;;;;;9.27;3.97;;;;;;;;;;4989464;28;20552;-77
2023/05/28 01:09:29;;;;;;;10.75;4.53;;;;;;;;;;4994086;28;20034;-77
2023/05/28 01:11:55;;;;;;;7.03;4.60;;;;;;;;;;4985648;28;20034;-77
2023/05/28 01:14:21;;;;;;;5.22;4.15;;;;;;;;;;5000154;28;20026;-77
2023/05/28 01:16:48;;;;;;;9.18;4.82;;;;;;;;;;4993292;28;20038;-76
2023/05/28 01:19:16;;;;;;;15.60;4.88;;;;;;;;;;4985009;28;20462;-76
2023/05/28 01:21:45;;;;;;;8.00;4.65;;;;;;;;;;4995159;28;20062;-78
2023/05/28 01:24:13;;;;;;;5.80;4.38;;;;;;;;;;4985820;28;20057;-77
2023/05/28 01:26:40;;;;;;;8.65;4.35;;;;;;;;;;4987911;28;20027;-77
2023/05/28 01:29:16;;;;;;;9.82;4.70;;;;;;;;;;4993369;28;20761;-77
2023/05/28 01:31:41;;;;;;;10.30;4.57;;;;;;;;;;4995033;28;20064;-77
2023/05/28 01:34:06;;;;;;;8.43;4.50;;;;;;;;;;4995269;28;20405;-77
2023/05/28 01:36:38;;;;;;;11.50;4.30;;;;;;;;;;4990493;28;20319;-77
2023/05/28 01:39:05;;;;;;;10.23;4.20;;;;;;;;;;4994542;28;20139;-77
2023/05/28 01:41:30;;;;;;;18.17;5.57;;;;;;;;;;4989620;28;20034;-76
2023/05/28 01:43:56;;;;;;;10.60;5.05;;;;;;;;;;4987411;28;20053;-77
2023/05/28 01:46:23;;;;;;;9.40;5.13;;;;;;;;;;4993128;28;20053;-77
2023/05/28 01:48:49;;;;;;;10.90;5.22;;;;;;;;;;4980570;28;20121;-77
2023/05/28 01:51:22;;;;;;;9.25;4.88;;;;;;;;;;4993992;28;20018;-77
2023/05/28 01:53:47;;;;;;;16.50;5.47;;;;;;;;;;4993375;28;20606;-77
2023/05/28 01:56:12;;;;;;;12.02;5.03;;;;;;;;;;4992596;28;20034;-77
2023/05/28 01:58:38;;;;;;;11.45;5.00;;;;;;;;;;4984408;28;20142;-76
2023/05/28 02:01:30;;;;;;;18.35;5.10;;;;;;;;;;4987958;28;20060;-77
2023/05/28 02:03:56;;;;;;;10.10;5.30;;;;;;;;;;4991602;28;20061;-76
2023/05/28 02:06:23;;;;;;;6.88;4.53;;;;;;;;;;4992827;28;20134;-77
2023/05/28 02:08:49;;;;;;;11.35;4.75;;;;;;;;;;4992653;28;20144;-77
2023/05/28 02:11:14;;;;;;;7.72;4.47;;;;;;;;;;4986751;28;20047;-77
2023/05/28 02:13:40;;;;;;;13.30;5.07;;;;;;;;;;4987928;28;20043;-77
2023/05/28 02:16:06;;;;;;;8.85;4.53;;;;;;;;;;4989001;28;20072;-77
2023/05/28 02:18:32;;;;;;;12.10;5.10;;;;;;;;;;4982024;28;20049;-77
2023/05/28 02:20:58;;;;;;;10.25;4.82;;;;;;;;;;4990807;28;20110;-77
2023/05/28 02:23:23;;;;;;;11.40;5.70;;;;;;;;;;4994508;28;20042;-76
2023/05/28 02:25:48;;;;;;;10.85;4.70;;;;;;;;;;4988341;28;20146;-76
2023/05/28 02:28:14;;;;;;;15.20;4.78;;;;;;;;;;4992112;28;20030;-77
2023/05/28 02:30:39;;;;;;;7.95;4.78;;;;;;;;;;4982139;28;20383;-77
2023/05/28 02:33:04;;;;;;;9.90;4.72;;;;;;;;;;4977961;28;20034;-77
2023/05/28 02:35:31;;;;;;;11.73;5.22;;;;;;;;;;4990186;28;20370;-77
2023/05/28 02:37:56;;;;;;;10.95;5.18;;;;;;;;;;4988693;28;20113;-77
2023/05/28 02:40:21;;;;;;;10.32;5.43;;;;;;;;;;4983420;28;20219;-76
2023/05/28 02:42:46;;;;;;;9.98;5.40;;;;;;;;;;4988808;28;20030;-77
2023/05/28 02:45:12;;;;;;;9.80;6.10;;;;;;;;;;4985078;28;20038;-76
2023/05/28 02:47:37;;;;;;;12.85;5.57;;;;;;;;;;4975607;28;20057;-77
2023/05/28 02:50:03;;;;;;;14.43;5.15;;;;;;;;;;4982319;28;20034;-77
2023/05/28 02:52:28;;;;;;;10.00;4.97;;;;;;;;;;4993636;28;20034;-77
2023/05/28 02:54:53;;;;;;;11.07;5.20;;;;;;;;;;4988074;28;20524;-77
2023/05/28 02:57:19;;;;;;;8.80;5.03;;;;;;;;;;4984224;28;20045;-77
2023/05/28 02:59:44;;;;;;;13.98;4.97;;;;;;;;;;4994492;28;20028;-77
2023/05/28 03:02:09;;;;;;;19.27;5.65;;;;;;;;;;4985715;28;20039;-77
2023/05/28 03:04:35;;;;;;;11.55;6.05;;;;;;;;;;4992672;28;20492;-76
2023/05/28 03:07:01;;;;;;;17.30;5.97;;;;;;;;;;4992661;28;20033;-77
2023/05/28 03:09:27;;;;;;;13.27;6.45;;;;;;;;;;4990866;28;20448;-77
2023/05/28 03:11:52;;;;;;;13.15;5.55;;;;;;;;;;4986311;28;20022;-76
2023/05/28 03:14:17;;;;;;;12.07;6.03;;;;;;;;;;5024492;23;20027;-81
2023/05/28 03:16:43;;;;;;;9.98;5.55;;;;;;;;;;4993546;28;20045;-81
2023/05/28 03:19:08;;;;;;;13.52;6.80;;;;;;;;;;4989300;28;20054;-83
2023/05/28 03:21:35;;;;;;;12.57;5.78;;;;;;;;;;5012224;28;20086;-83
2023/05/28 03:24:00;;;;;;;11.40;5.50;;;;;;;;;;4997776;28;20037;-81
2023/05/28 03:26:25;;;;;;;10.93;6.07;;;;;;;;;;4978194;28;20031;-80
2023/05/28 03:28:51;;;;;;;13.23;6.20;;;;;;;;;;4972141;28;20039;-81
2023/05/28 03:31:16;;;;;;;12.70;5.63;;;;;;;;;;4968058;28;20076;-83
2023/05/28 03:33:41;;;;;;;9.77;5.50;;;;;;;;;;4968397;28;20046;-82
2023/05/28 03:36:07;;;;;;;15.98;6.10;;;;;;;;;;4978101;28;20102;-81
2023/05/28 03:38:33;;;;;;;19.98;6.97;;;;;;;;;;4981631;28;20019;-80
2023/05/28 03:40:58;;;;;;;20.65;6.32;;;;;;;;;;4968064;28;20513;-82
2023/05/28 03:43:24;;;;;;;15.48;6.10;;;;;;;;;;4977395;28;20125;-81
2023/05/28 03:45:50;;;;;;;16.83;6.03;;;;;;;;;;4971496;28;20098;-83
2023/05/28 03:48:15;;;;;;;15.95;6.43;;;;;;;;;;4975813;28;20114;-82
2023/05/28 03:50:40;;;;;;;17.45;6.07;;;;;;;;;;4973705;28;20023;-84
2023/05/28 03:53:06;;;;;;;14.60;6.20;;;;;;;;;;4973409;28;20108;-82
2023/05/28 03:55:32;;;;;;;13.95;5.88;;;;;;;;;;4969833;28;20077;-82
2023/05/28 03:57:57;;;;;;;13.38;5.63;;;;;;;;;;4966562;28;20493;-83
2023/05/28 04:00:23;;;;;;;13.68;5.00;;;;;;;;;;4967505;28;20035;-83
2023/05/28 04:02:48;;;;;;;10.98;4.90;;;;;;;;;;4977712;28;20500;-82
2023/05/28 04:05:13;;;;;;;11.73;5.82;;;;;;;;;;4977682;28;20038;-82
2023/05/28 04:07:39;;;;;;;10.18;5.00;;;;;;;;;;4965551;28;20035;-82
2023/05/28 04:10:05;;;;;;;13.73;5.65;;;;;;;;;;4972603;28;20069;-81
2023/05/28 04:12:30;;;;;;;9.00;4.95;;;;;;;;;;4974584;28;20050;-81
2023/05/28 04:14:56;;;;;;;19.23;5.28;;;;;;;;;;4971158;28;20592;-82
2023/05/28 04:17:22;;;;;;;9.85;4.85;;;;;;;;;;4977758;28;20042;-82
2023/05/28 04:19:47;;;;;;;11.05;4.47;;;;;;;;;;4969731;28;20027;-82
2023/05/28 04:22:12;;;;;;;10.20;5.40;;;;;;;;;;4969411;28;20034;-81
2023/05/28 04:24:38;;;;;;;7.82;4.40;;;;;;;;;;4965619;28;20095;-82
2023/05/28 04:27:03;;;;;;;6.50;4.57;;;;;;;;;;4966704;28;20083;-81
2023/05/28 04:29:29;;;;;;;9.73;5.13;;;;;;;;;;4965009;28;20050;-82
2023/05/28 04:31:57;;;;;;;9.75;4.88;;;;;;;;;;4976997;28;20033;-82
2023/05/28 04:34:24;;;;;;;8.32;4.25;;;;;;;;;;4975264;28;20026;-81
2023/05/28 04:36:51;;;;;;;6.30;4.43;;;;;;;;;;4965894;28;20090;-80
2023/05/28 04:39:17;;;;;;;7.90;4.53;;;;;;;;;;4966274;28;20016;-80
2023/05/28 04:41:43;;;;;;;11.07;4.53;;;;;;;;;;4971238;28;20023;-81
2023/05/28 04:44:09;;;;;;;10.73;4.65;;;;;;;;;;4977708;28;20532;-82
2023/05/28 04:46:36;;;;;;;8.10;4.53;;;;;;;;;;4969216;28;20389;-81
2023/05/28 04:49:02;;;;;;;12.07;4.38;;;;;;;;;;4969634;28;20069;-82
2023/05/28 04:51:27;;;;;;;9.75;4.38;;;;;;;;;;4973667;28;20039;-81
2023/05/28 04:53:53;;;;;;;5.93;3.88;;;;;;;;;;4967152;28;20027;-81
2023/05/28 04:56:18;;;;;;;8.35;4.30;;;;;;;;;;4966066;28;20033;-82
2023/05/28 04:58:43;;;;;;;9.95;4.85;;;;;;;;;;4970031;28;20058;-82
2023/05/28 05:01:09;;;;;;;8.20;4.57;;;;;;;;;;4975075;28;20023;-82
2023/05/28 05:03:35;;;;;;;7.35;4.47;;;;;;;;;;4973715;28;20035;-81
2023/05/28 05:06:00;;;;;;;11.23;4.60;;;;;;;;;;4978472;28;20026;-81
2023/05/28 05:08:26;;;;;;;9.95;4.30;;;;;;;;;;4978577;28;20026;-81
2023/05/28 05:10:52;;;;;;;8.90;4.57;;;;;;;;;;4968662;28;20036;-82
2023/05/28 05:13:17;;;;;;;5.53;4.28;;;;;;;;;;4967835;28;20032;-82
2023/05/28 05:15:42;;;;;;;8.27;4.20;;;;;;;;;;4965681;28;20046;-82
2023/05/28 05:18:08;;;;;;;10.43;4.25;;;;;;;;;;4980263;28;20499;-82
2023/05/28 05:20:33;;;;;;;7.55;4.55;;;;;;;;;;4979568;28;20038;-83
2023/05/28 05:22:58;;;;;;;7.85;4.35;;;;;;;;;;4977059;28;20086;-83
2023/05/28 05:25:23;;;;;;;17.42;4.60;;;;;;;;;;4970284;28;20039;-82
2023/05/28 05:27:50;;;;;;;11.75;4.57;;;;;;;;;;4966034;28;20239;-82
2023/05/28 05:30:15;;;;;;;8.45;4.53;;;;;;;;;;4969230;28;20493;-82
2023/05/28 05:32:41;;;;;;;12.35;4.07;;;;;;;;;;4978510;28;20047;-82
2023/05/28 05:35:06;;;;;;;10.30;4.95;;;;;;;;;;4961613;28;20028;-82
2023/05/28 05:37:32;;;;;;;14.85;5.07;;;;;;;;;;4963997;28;20528;-81
2023/05/28 05:39:57;;;;;;;9.15;4.47;;;;;;;;;;4971800;28;20062;-82
2023/05/28 05:42:22;;;;;;;10.57;4.70;;;;;;;;;;4969998;28;20231;-83
2023/05/28 05:44:47;;;;;;;9.18;3.97;;;;;;;;;;4972632;28;20077;-82
2023/05/28 05:47:13;;;;;;;10.75;4.15;;;;;;;;;;4981395;28;20110;-82
2023/05/28 05:49:38;;;;;;;10.50;4.53;;;;;;;;;;4969614;28;20031;-82
2023/05/28 05:52:04;;;;;;;14.15;5.20;;;;;;;;;;4961939;28;20034;-81
2023/05/28 05:54:29;;;;;;;9.80;4.45;;;;;;;;;;4970748;28;20031;-82
2023/05/28 05:56:54;;;;;;;10.40;4.50;;;;;;;;;;4980610;28;20022;-82
2023/05/28 05:59:19;;;;;;;8.70;4.35;;;;;;;;;;4976349;28;20177;-82
2023/05/28 06:01:45;;;;;;;13.32;4.90;;;;;;;;;;4981351;28;20099;-82
2023/05/28 06:04:10;;;;;;;9.38;4.85;;;;;;;;;;4973897;28;20031;-82
2023/05/28 06:06:38;;;;;;;9.23;4.60;;;;;;;;;;4969374;28;20062;-81
2023/05/28 06:09:04;;;;;;;9.85;4.40;;;;;;;;;;4970190;28;20023;-82
2023/05/28 06:11:30;;;;;;;13.15;4.97;;;;;;;;;;4962540;28;20035;-80
2023/05/28 06:13:55;;;;;;;13.77;4.88;;;;;;;;;;4973049;28;20078;-81
2023/05/28 06:16:21;;;;;;;7.00;4.38;;;;;;;;;;4979765;28;20170;-81
2023/05/28 06:18:47;;;;;;;9.55;4.60;;;;;;;;;;4982438;28;20100;-81
2023/05/28 06:21:12;;;;;;;12.77;4.18;;;;;;;;;;4977275;28;20114;-81
2023/05/28 06:23:37;;;;;;;13.25;5.13;;;;;;;;;;4972218;28;20019;-82
2023/05/28 06:26:03;;;;;;;12.45;4.90;;;;;;;;;;4986863;28;20039;-82
2023/05/28 06:28:29;;;;;;;10.65;5.20;;;;;;;;;;4976525;28;20525;-82
2023/05/28 06:30:54;;;;;;;10.13;4.43;;;;;;;;;;4977276;28;20062;-82
2023/05/28 06:33:20;;;;;;;10.52;4.97;;;;;;;;;;4976756;28;20026;-82
2023/05/28 06:35:46;;;;;;;9.05;4.63;;;;;;;;;;4976744;28;20089;-81
2023/05/28 06:38:11;;;;;;;14.32;5.38;;;;;;;;;;4976566;28;20128;-81
2023/05/28 06:40:36;;;;;;;11.63;5.40;;;;;;;;;;4975248;28;20050;-81
2023/05/28 06:43:02;;;;;;;10.05;4.80;;;;;;;;;;4976557;28;20469;-80
2023/05/28 06:45:28;;;;;;;13.15;5.10;;;;;;;;;;4973446;28;20464;-81
2023/05/28 06:47:54;;;;;;;7.63;4.35;;;;;;;;;;4972553;28;20018;-81
2023/05/28 06:50:19;;;;;;;13.30;4.63;;;;;;;;;;4970336;28;20041;-81
2023/05/28 06:52:44;;;;;;;10.63;4.90;;;;;;;;;;4975577;28;20049;-80
2023/05/28 06:55:10;;;;;;;12.10;5.00;;;;;;;;;;4976869;28;20042;-80
2023/05/28 06:57:36;;;;;;;9.35;5.03;;;;;;;;;;4974592;28;20043;-81
2023/05/28 07:00:13;;;;;;;8.68;4.85;;;;;;;;;;4976838;28;20027;-81
2023/05/28 07:02:38;;;;;;;9.75;4.40;;;;;;;;;;4977736;28;20083;-81
2023/05/28 07:05:04;;;;;;;9.35;3.83;;;;;;;;;;4975457;28;20146;-81
2023/05/28 07:07:30;;;;;;;11.10;4.70;;;;;;;;;;4969775;28;20517;-81
2023/05/28 07:09:56;;;;;;;10.20;4.90;;;;;;;;;;4975654;28;20039;-80
2023/05/28 07:12:21;;;;;;;11.82;4.45;;;;;;;;;;4973332;28;20034;-80
2023/05/28 07:14:46;;;;;;;9.10;4.60;;;;;;;;;;4974955;28;20019;-80
2023/05/28 07:17:11;;;;;;;8.18;4.53;;;;;;;;;;4975839;28;20030;-81
2023/05/28 07:19:37;;;;;;;6.07;4.05;;;;;;;;;;4974800;28;20042;-80
2023/05/28 07:22:02;;;;;;;8.82;4.25;;;;;;;;;;4976013;28;20037;-79
2023/05/28 07:24:27;;;;;;;6.18;3.78;;;;;;;;;;4972482;28;20046;-81
2023/05/28 07:26:53;;;;;;;11.02;4.60;;;;;;;;;;4976843;28;20027;-80
2023/05/28 07:29:18;;;;;;;11.70;4.60;;;;;;;;;;4994702;28;20041;-79
2023/05/28 07:31:44;;;;;;;11.27;4.70;;;;;;;;;;4979598;28;20037;-81
2023/05/28 07:34:10;;;;;;;9.27;4.18;;;;;;;;;;4976687;28;20470;-80
2023/05/28 07:36:37;;;;;;;10.05;4.10;;;;;;;;;;4974557;28;20039;-81
2023/05/28 07:39:03;;;;;;;13.93;5.40;;;;;;;;;;4975612;28;20469;-80
2023/05/28 07:41:29;;;;;;;11.25;4.68;;;;;;;;;;4979639;28;20482;-81
2023/05/28 07:43:54;;;;;;;9.88;3.97;;;;;;;;;;4975997;28;20059;-80
2023/05/28 07:46:21;;;;;;;12.75;4.13;;;;;;;;;;4975890;28;20461;-81
2023/05/28 07:48:47;;;;;;;7.03;3.78;;;;;;;;;;4976956;28;20027;-80
2023/05/28 07:51:12;;;;;;;12.95;4.85;;;;;;;;;;4977349;28;20026;-81
2023/05/28 07:53:37;;;;;;;11.23;4.10;;;;;;;;;;4976501;28;20531;-80
2023/05/28 07:56:03;;;;;;;11.80;4.57;;;;;;;;;;4976210;28;20023;-81
2023/05/28 07:58:28;;;;;;;10.05;4.38;;;;;;;;;;4976830;28;20043;-80
2023/05/28 08:00:53;;;;;;;11.35;4.60;;;;;;;;;;4977644;28;20027;-81
2023/05/28 08:03:18;;;;;;;8.30;3.38;;;;;;;;;;4977679;28;20034;-79
2023/05/28 08:05:44;;;;;;;9.48;3.80;;;;;;;;;;4974549;28;20027;-80
2023/05/28 08:08:09;;;;;;;13.32;4.72;;;;;;;;;;4972938;28;20038;-81
2023/05/28 08:10:34;;;;;;;6.93;3.70;;;;;;;;;;4976047;28;20602;-81
2023/05/28 08:13:00;;;;;;;10.45;3.83;;;;;;;;;;4974066;28;20051;-81
2023/05/28 08:15:25;;;;;;;11.13;3.88;;;;;;;;;;4976374;28;20042;-82
2023/05/28 08:17:51;;;;;;;8.18;3.67;;;;;;;;;;4982999;28;20034;-81
2023/05/28 08:20:17;;;;;;;11.45;4.40;;;;;;;;;;4975507;28;20077;-81
2023/05/28 08:22:42;;;;;;;7.05;3.92;;;;;;;;;;4977444;28;20413;-81
2023/05/28 08:25:08;;;;;;;7.13;3.75;;;;;;;;;;4976684;28;20078;-81
2023/05/28 08:27:34;;;;;;;8.27;4.20;;;;;;;;;;4976394;28;20463;-80
2023/05/28 08:30:00;;;;;;;7.20;3.90;;;;;;;;;;4981674;28;20026;-80
2023/05/28 08:32:25;;;;;;;5.50;3.30;;;;;;;;;;4981487;28;20035;-79
2023/05/28 08:34:50;;;;;;;5.45;3.35;;;;;;;;;;4976140;28;20116;-81
2023/05/28 08:37:16;;;;;;;16.13;3.60;;;;;;;;;;4981855;28;20098;-81
2023/05/28 08:39:41;;;;;;;9.50;3.83;;;;;;;;;;4982882;28;20031;-80
2023/05/28 08:42:06;;;;;;;7.78;4.18;;;;;;;;;;4982310;28;20041;-81
2023/05/28 08:44:32;;;;;;;7.43;3.92;;;;;;;;;;4978190;28;20035;-82
2023/05/28 08:46:58;;;;;;;12.10;4.10;;;;;;;;;;4977972;28;20049;-82
2023/05/28 08:49:32;;;;;;;8.60;4.00;;;;;;;;;;4977735;28;20046;-81
2023/05/28 08:52:01;;;;;;;7.32;3.85;;;;;;;;;;4976752;28;20408;-82
2023/05/28 08:54:27;;;;;;;13.57;4.25;;;;;;;;;;4980498;28;20035;-80
2023/05/28 08:56:53;;;;;;;11.68;4.18;;;;;;;;;;4977581;28;20027;-81
2023/05/28 08:59:19;;;;;;;10.48;3.80;;;;;;;;;;4971981;28;20031;-82
2023/05/28 09:01:44;;;;;;;7.55;3.30;;;;;;;;;;4973254;28;20035;-82
2023/05/28 09:04:10;;;;;;;10.15;4.05;;;;;;;;;;4977143;28;20049;-82
2023/05/28 09:06:39;;;;;;;7.82;3.08;;;;;;;;;;4969002;28;20047;-81
2023/05/28 09:09:07;;;;;;;6.32;3.70;;;;;;;;;;4975081;28;20058;-81
2023/05/28 09:11:33;;;;;;;7.93;3.35;;;;;;;;;;4980568;28;20034;-81
2023/05/28 09:14:08;;;;;;;7.45;3.58;;;;;;;;;;4978400;28;20034;-79
2023/05/28 09:16:33;;;;;;;8.15;3.70;;;;;;;;;;4980856;28;20102;-81
2023/05/28 09:19:04;;;;;;;8.77;3.92;;;;;;;;;;4979068;28;20062;-80
2023/05/28 09:21:29;;;;;;;8.23;3.40;;;;;;;;;;4976005;28;20040;-82
2023/05/28 09:23:55;;;;;;;7.90;3.40;;;;;;;;;;4980182;28;20031;-81
2023/05/28 09:26:20;;;;;;;4.93;3.38;;;;;;;;;;4972153;28;20082;-82
2023/05/28 09:28:46;;;;;;;13.23;3.80;;;;;;;;;;4979920;28;20061;-82
2023/05/28 09:31:12;;;;;;;9.43;3.30;;;;;;;;;;4985008;28;20039;-81
2023/05/28 09:33:42;;;;;;;9.40;3.53;;;;;;;;;;4980247;28;20131;-82
2023/05/28 09:36:09;;;;;;;8.27;3.20;;;;;;;;;;4973448;28;20023;-82
2023/05/28 09:38:39;;;;;;;7.13;3.33;;;;;;;;;;4976837;28;20034;-80
2023/05/28 09:41:05;;;;;;;8.27;3.25;;;;;;;;;;4985300;28;20039;-81
2023/05/28 09:43:30;;;;;;;10.57;3.53;;;;;;;;;;4982394;28;20042;-81
2023/05/28 09:46:08;;;;;;;13.75;3.97;;;;;;;;;;4982143;28;20043;-81
2023/05/28 09:48:34;;;;;;;9.18;3.78;;;;;;;;;;4977577;28;20046;-81
2023/05/28 09:51:03;;;;;;;9.88;3.75;;;;;;;;;;4975589;28;20111;-82
2023/05/28 09:53:30;;;;;;;9.20;3.17;;;;;;;;;;4985800;28;20497;-81
2023/05/28 09:55:58;;;;;;;7.32;3.33;;;;;;;;;;4980126;28;20038;-81
2023/05/28 09:58:31;;;;;;;8.65;3.30;;;;;;;;;;4984404;28;20096;-81
2023/05/28 10:01:00;;;;;;;4.60;3.05;;;;;;;;;;4980820;28;20112;-80
2023/05/28 10:03:36;;;;;;;8.65;3.30;;;;;;;;;;4983330;28;20038;-80
2023/05/28 10:06:13;;;;;;;8.57;3.38;;;;;;;;;;4979108;28;20027;-81
2023/05/28 10:08:40;;;;;;;8.80;3.40;;;;;;;;;;4979240;28;20038;-79
2023/05/28 10:11:09;;;;;;;13.68;2.97;;;;;;;;;;4975520;28;20035;-80
2023/05/28 10:13:35;;;;;;;10.40;3.63;;;;;;;;;;4976060;28;20039;-81
2023/05/28 10:16:01;;;;;;;7.05;3.50;;;;;;;;;;4990729;28;20041;-82
2023/05/28 10:18:27;;;;;;;11.00;3.70;;;;;;;;;;4975282;28;20042;-81
2023/05/28 10:20:53;;;;;;;9.07;4.57;;;;;;;;;;4971531;28;20031;-81
2023/05/28 10:23:20;;;;;;;9.20;3.85;;;;;;;;;;4972737;28;20382;-81
2023/05/28 10:25:46;;;;;;;7.22;3.55;;;;;;;;;;4977844;28;20039;-80
2023/05/28 10:28:15;;;;;;;7.03;3.40;;;;;;;;;;4975292;28;20580;-80
2023/05/28 10:30:40;;;;;;;5.97;3.15;;;;;;;;;;4974727;28;20501;-81
2023/05/28 10:33:14;;;;;;;13.10;3.88;;;;;;;;;;4971652;28;20030;-82
2023/05/28 10:35:56;;;;;;;;;;;;;;;;;;4977131;28;20098;-80
2023/05/28 10:38:21;;;;;;;6.82;3.53;;;;;;;;;;4982769;28;19929;-80
2023/05/28 10:40:48;;;;;;;9.38;3.42;;;;;;;;;;4990131;28;20043;-81
2023/05/28 10:43:38;;;;;;;8.20;3.28;;;;;;;;;;4975846;28;20031;-81
2023/05/28 10:46:08;;;;;;;6.85;3.25;;;;;;;;;;4976473;28;20054;-82
2023/05/28 10:48:38;;;;;;;9.55;3.53;;;;;;;;;;4974907;28;20393;-81
2023/05/28 10:51:05;;;;;;;6.40;3.15;;;;;;;;;;4974872;28;20728;-81
2023/05/28 10:53:30;;;;;;;6.65;3.35;;;;;;;;;;4978023;28;20109;-82
2023/05/28 10:55:56;;;;;;;6.95;3.42;;;;;;;;;;4974678;28;20030;-81
2023/05/28 10:58:38;;;;;;;6.25;3.60;;;;;;;;;;4977418;28;20090;-82
2023/05/28 11:01:22;;;;;;;5.13;3.38;;;;;;;;;;4974094;28;20043;-82
2023/05/28 11:03:53;;;;;;;9.43;3.72;;;;;;;;;;4976119;28;20031;-82
2023/05/28 11:06:19;;;;;;;9.30;3.20;;;;;;;;;;4979555;28;20027;-81
2023/05/28 11:08:48;;;;;;;5.45;3.33;;;;;;;;;;4977587;28;20038;-81
2023/05/28 11:11:15;;;;;;;8.68;4.13;;;;;;;;;;4973189;28;20102;-82
2023/05/28 11:13:42;;;;;;;9.10;3.35;;;;;;;;;;4976449;28;20081;-81
2023/05/28 11:16:12;;;;;;;6.93;3.38;;;;;;;;;;4975983;28;20041;-82
2023/05/28 11:18:38;;;;;;;13.88;3.60;;;;;;;;;;4974764;28;20065;-82
2023/05/28 11:21:07;;;;;;;6.68;3.60;;;;;;;;;;4978933;28;20014;-81
2023/05/28 11:23:36;;;;;;;9.45;3.75;;;;;;;;;;4976260;28;20058;-81
2023/05/28 11:26:02;;;;;;;6.55;3.33;;;;;;;;;;4977098;28;20089;-80
2023/05/28 11:28:28;;;;;;;5.70;3.28;;;;;;;;;;4976422;28;20039;-82
2023/05/28 11:30:56;;;;;;;9.95;2.90;;;;;;;;;;4974804;28;20099;-81
2023/05/28 11:33:21;;;;;;;8.18;3.60;;;;;;;;;;4975357;28;20019;-81
2023/05/28 11:35:56;;;;;;;10.27;2.95;;;;;;;;;;4975652;28;20094;-81
2023/05/28 11:38:21;;;;;;;7.32;3.17;;;;;;;;;;4976389;28;20043;-81
2023/05/28 11:40:47;;;;;;;5.32;3.20;;;;;;;;;;4976704;28;20041;-81
2023/05/28 11:43:12;;;;;;;10.85;3.42;;;;;;;;;;4977094;28;20046;-81
2023/05/28 11:45:39;;;;;;;10.27;4.13;;;;;;;;;;4976544;28;20053;-80
2023/05/28 11:48:11;;;;;;;7.47;3.15;;;;;;;;;;4976999;28;20118;-81
2023/05/28 11:50:36;;;;;;;6.93;2.95;;;;;;;;;;4972265;28;20034;-79
2023/05/28 11:53:01;;;;;;;6.35;3.25;;;;;;;;;;4979019;28;20338;-80
2023/05/28 11:55:27;;;;;;;10.35;3.30;;;;;;;;;;4971161;28;20102;-81
2023/05/28 11:57:55;;;;;;;8.80;3.53;;;;;;;;;;4976917;28;20038;-81
2023/05/28 12:00:32;;;;;;;9.15;3.63;;;;;;;;;;4973868;28;20037;-81
2023/05/28 12:02:57;;;;;;;8.30;3.25;;;;;;;;;;4972699;28;20053;-81
2023/05/28 12:05:23;;;;;;;7.07;3.35;;;;;;;;;;4977764;28;20134;-80
2023/05/28 12:07:49;;;;;;;8.88;3.63;;;;;;;;;;4976563;28;20042;-80
2023/05/28 12:10:18;;;;;;;4.68;3.20;;;;;;;;;;4991675;28;20039;-81
2023/05/28 12:12:46;;;;;;;6.72;3.08;;;;;;;;;;4978461;28;20039;-84
2023/05/28 12:15:15;;;;;;;8.27;3.33;;;;;;;;;;4978322;28;20050;-80
2023/05/28 12:17:42;;;;;;;8.23;4.32;;;;;;;;;;4978035;28;20090;-81
2023/05/28 12:20:17;;;;;;;3.35;2.65;;;;;;;;;;4984246;28;20516;-82
2023/05/28 12:22:43;;;;;;;8.43;3.38;;;;;;;;;;4984926;28;20535;-81
2023/05/28 12:25:08;;;;;;;5.85;3.53;;;;;;;;;;4977379;28;20066;-82
2023/05/28 12:27:36;;;;;;;8.05;3.20;;;;;;;;;;4976345;28;20043;-82
2023/05/28 12:30:04;;;;;;;9.07;3.17;;;;;;;;;;4976276;28;20543;-82
2023/05/28 12:32:30;;;;;;;10.13;3.40;;;;;;;;;;4976225;28;20117;-83
2023/05/28 12:34:58;;;;;;;6.10;2.97;;;;;;;;;;4978415;28;20113;-82
2023/05/28 12:37:23;;;;;;;5.97;2.92;;;;;;;;;;4978420;28;20563;-83
2023/05/28 12:39:49;;;;;;;7.03;3.60;;;;;;;;;;4975658;28;20038;-82
2023/05/28 12:42:15;;;;;;;10.40;3.22;;;;;;;;;;4979962;28;20027;-82
2023/05/28 12:44:40;;;;;;;7.53;3.47;;;;;;;;;;4977018;28;20026;-82
2023/05/28 12:47:06;;;;;;;7.30;3.17;;;;;;;;;;4990081;28;20036;-82
2023/05/28 12:49:31;;;;;;;7.55;3.35;;;;;;;;;;4978884;28;20092;-82
2023/05/28 12:51:57;;;;;;;6.28;3.22;;;;;;;;;;4976912;28;20093;-81
2023/05/28 12:54:22;;;;;;;5.28;3.45;;;;;;;;;;4982166;28;20051;-82
2023/05/28 12:56:47;;;;;;;9.05;3.40;;;;;;;;;;4986528;28;20107;-81
2023/05/28 12:59:24;;;;;;;11.32;3.25;;;;;;;;;;4979853;28;20047;-82
2023/05/28 13:01:49;;;;;;;7.68;3.20;;;;;;;;;;4982166;28;20034;-82
2023/05/28 13:04:15;;;;;;;9.27;3.42;;;;;;;;;;4981960;28;20045;-81
2023/05/28 13:06:42;;;;;;;11.32;3.50;;;;;;;;;;4979933;28;20062;-82
2023/05/28 13:09:09;;;;;;;6.57;3.33;;;;;;;;;;4983967;28;20049;-82
2023/05/28 13:11:35;;;;;;;7.45;3.38;;;;;;;;;;4978597;28;20029;-82
2023/05/28 13:14:00;;;;;;;8.75;3.22;;;;;;;;;;4975297;28;20114;-82
2023/05/28 13:16:25;;;;;;;6.45;3.20;;;;;;;;;;4977712;28;20094;-81
2023/05/28 13:18:51;;;;;;;5.47;3.60;;;;;;;;;;4976579;28;20055;-81
2023/05/28 13:21:16;;;;;;;7.75;3.25;;;;;;;;;;4997304;28;20544;-81
2023/05/28 13:23:41;;;;;;;7.32;3.30;;;;;;;;;;4980457;28;20041;-82
2023/05/28 13:26:06;;;;;;;10.05;3.38;;;;;;;;;;4980746;28;20038;-82
2023/05/28 13:28:32;;;;;;;10.23;3.83;;;;;;;;;;4980611;28;20078;-81
2023/05/28 13:30:57;;;;;;;7.15;3.22;;;;;;;;;;4981365;28;20411;-82
2023/05/28 13:33:22;;;;;;;5.65;3.15;;;;;;;;;;4984711;28;20081;-81
2023/05/28 13:35:48;;;;;;;6.47;3.20;;;;;;;;;;4978785;28;20029;-81
2023/05/28 13:38:13;;;;;;;9.35;3.88;;;;;;;;;;4981875;28;20061;-82
2023/05/28 13:40:39;;;;;;;6.60;3.30;;;;;;;;;;4978608;28;20038;-83
2023/05/28 13:43:06;;;;;;;6.75;3.42;;;;;;;;;;4984196;28;20042;-83
2023/05/28 13:45:31;;;;;;;6.82;3.30;;;;;;;;;;4985713;28;20034;-83
2023/05/28 13:47:57;;;;;;;9.88;3.88;;;;;;;;;;4981303;28;20114;-81
2023/05/28 13:50:22;;;;;;;5.35;3.53;;;;;;;;;;4980398;28;20409;-83
2023/05/28 13:52:48;;;;;;;5.95;3.25;;;;;;;;;;4980433;28;20043;-83
2023/05/28 13:55:13;;;;;;;6.47;3.40;;;;;;;;;;4978039;28;20027;-83
2023/05/28 13:57:38;;;;;;;6.38;3.08;;;;;;;;;;4976190;28;20121;-83
2023/05/28 14:00:07;;;;;;;5.53;3.15;;;;;;;;;;4979245;28;20366;-82
2023/05/28 14:02:32;;;;;;;9.50;2.83;;;;;;;;;;4981310;28;20109;-83
2023/05/28 14:04:57;;;;;;;4.95;3.10;;;;;;;;;;4977336;28;20070;-83
2023/05/28 14:07:23;;;;;;;3.70;2.72;;;;;;;;;;4980034;28;20054;-83
2023/05/28 14:09:48;;;;;;;7.85;2.80;;;;;;;;;;4977242;28;20073;-83
2023/05/28 14:12:14;;;;;;;6.97;3.20;;;;;;;;;;4979792;28;20103;-82
2023/05/28 14:14:39;;;;;;;6.47;3.05;;;;;;;;;;4984452;28;20034;-82
2023/05/28 14:17:06;;;;;;;5.65;3.15;;;;;;;;;;4979110;28;20039;-82
2023/05/28 14:19:31;;;;;;;8.48;3.17;;;;;;;;;;4978038;28;20058;-83
2023/05/28 14:21:56;;;;;;;5.60;2.53;;;;;;;;;;4981530;28;20085;-82
2023/05/28 14:24:22;;;;;;;5.90;2.80;;;;;;;;;;4975995;28;20042;-81
2023/05/28 14:26:47;;;;;;;4.28;2.88;;;;;;;;;;4978870;28;20069;-82
2023/05/28 14:29:12;;;;;;;5.28;2.90;;;;;;;;;;4974344;28;20054;-80
2023/05/28 14:31:38;;;;;;;7.50;3.42;;;;;;;;;;4981203;28;20039;-81
2023/05/28 14:34:03;;;;;;;8.05;3.60;;;;;;;;;;4978148;28;20153;-80